createdAt,value
2018-06-25T00:00:45.861Z,1013.51
2018-06-25T00:01:55.831Z,1013.5
2018-06-25T00:03:05.808Z,1013.49
2018-06-25T00:04:15.263Z,1013.49
2018-06-25T00:05:25.238Z,1013.48
2018-06-25T00:06:34.955Z,1013.49
2018-06-25T00:07:44.663Z,1013.55
2018-06-25T00:08:54.630Z,1013.55
2018-06-25T00:10:04.332Z,1013.5
2018-06-25T00:11:14.284Z,1013.51
2018-06-25T00:12:23.741Z,1013.43
2018-06-25T00:13:33.699Z,1013.45
2018-06-25T00:14:43.502Z,1013.42
2018-06-25T00:15:53.464Z,1013.4
2018-06-25T00:17:03.428Z,1013.43
2018-06-25T00:18:13.131Z,1013.43
2018-06-25T00:19:23.097Z,1013.41
2018-06-25T00:20:33.051Z,1013.43
2018-06-25T00:21:43.024Z,1013.42
2018-06-25T00:22:52.998Z,1013.41
2018-06-25T00:24:03.003Z,1013.4
2018-06-25T00:25:12.710Z,1013.38
2018-06-25T00:26:22.672Z,1013.37
2018-06-25T00:27:32.681Z,1013.38
2018-06-25T00:28:42.640Z,1013.37
2018-06-25T00:29:52.341Z,1013.34
2018-06-25T00:31:02.320Z,1013.37
2018-06-25T00:32:12.036Z,1013.32
2018-06-25T00:33:21.975Z,1013.32
2018-06-25T00:34:31.674Z,1013.33
2018-06-25T00:35:41.697Z,1013.33
2018-06-25T00:36:51.403Z,1013.29
2018-06-25T00:38:01.113Z,1013.29
2018-06-25T00:39:11.098Z,1013.28
2018-06-25T00:40:20.806Z,1013.31
2018-06-25T00:41:30.513Z,1013.29
2018-06-25T00:42:40.219Z,1013.26
2018-06-25T00:43:50.173Z,1013.26
2018-06-25T00:45:00.140Z,1013.24
2018-06-25T00:46:10.122Z,1013.22
2018-06-25T00:47:19.818Z,1013.23
2018-06-25T00:48:29.525Z,1013.22
2018-06-25T00:49:39.215Z,1013.17
2018-06-25T00:50:49.170Z,1013.15
2018-06-25T00:51:59.165Z,1013.17
2018-06-25T00:53:08.867Z,1013.18
2018-06-25T00:54:18.821Z,1013.16
2018-06-25T00:55:28.787Z,1013.14
2018-06-25T00:56:38.492Z,1013.12
2018-06-25T00:57:48.474Z,1013.09
2018-06-25T00:58:58.175Z,1013.11
2018-06-25T01:00:07.874Z,1013.14
2018-06-25T01:01:17.585Z,1013.13
2018-06-25T01:02:27.288Z,1013.1
2018-06-25T01:03:37.250Z,1013.14
2018-06-25T01:04:47.209Z,1013.1
2018-06-25T01:05:57.175Z,1013.18
2018-06-25T01:07:07.561Z,1013.22
2018-06-25T01:08:17.513Z,1013.26
2018-06-25T01:09:27.212Z,1013.26
2018-06-25T01:10:37.176Z,1013.27
2018-06-25T01:11:46.873Z,1013.3
2018-06-25T01:12:56.834Z,1013.34
2018-06-25T01:14:06.022Z,1013.33
2018-06-25T01:15:15.720Z,1013.36
2018-06-25T01:16:25.429Z,1013.39
2018-06-25T01:17:35.386Z,1013.37
2018-06-25T01:18:45.351Z,1013.41
2018-06-25T01:19:55.328Z,1013.44
2018-06-25T01:21:05.043Z,1013.43
2018-06-25T01:22:14.753Z,1013.45
2018-06-25T01:23:24.709Z,1013.4
2018-06-25T01:24:34.670Z,1013.41
2018-06-25T01:25:44.373Z,1013.4
2018-06-25T01:26:54.327Z,1013.41
2018-06-25T01:28:04.293Z,1013.34
2018-06-25T01:29:14.254Z,1013.38
2018-06-25T01:30:23.956Z,1013.38
2018-06-25T01:31:33.958Z,1013.36
2018-06-25T01:32:43.913Z,1013.34
2018-06-25T01:33:53.898Z,1013.33
2018-06-25T01:35:03.865Z,1013.3
2018-06-25T01:36:13.819Z,1013.29
2018-06-25T01:37:23.517Z,1013.32
2018-06-25T01:38:33.708Z,1013.29
2018-06-25T01:39:43.407Z,1013.26
2018-06-25T01:40:53.132Z,1013.26
2018-06-25T01:42:03.099Z,1013.29
2018-06-25T01:43:13.057Z,1013.26
2018-06-25T01:44:23.023Z,1013.26
2018-06-25T01:45:32.727Z,1013.27
2018-06-25T01:46:42.684Z,1013.26
2018-06-25T01:47:52.422Z,1013.27
2018-06-25T01:49:02.127Z,1013.27
2018-06-25T01:50:11.821Z,1013.24
2018-06-25T01:51:21.522Z,1013.28
2018-06-25T01:52:31.493Z,1013.26
2018-06-25T01:53:41.190Z,1013.23
2018-06-25T01:54:50.913Z,1013.31
2018-06-25T01:56:00.872Z,1013.28
2018-06-25T01:57:10.317Z,1013.32
2018-06-25T01:58:20.294Z,1013.29
2018-06-25T01:59:30.259Z,1013.29
2018-06-25T02:00:39.970Z,1013.31
2018-06-25T02:01:49.933Z,1013.34
2018-06-25T02:02:59.892Z,1013.32
2018-06-25T02:04:09.598Z,1013.28
2018-06-25T02:05:19.292Z,1013.3
2018-06-25T02:06:29.005Z,1013.32
2018-06-25T02:07:38.966Z,1013.34
2018-06-25T02:08:48.925Z,1013.34
2018-06-25T02:09:58.887Z,1013.34
2018-06-25T02:11:08.589Z,1013.38
2018-06-25T02:12:18.296Z,1013.37
2018-06-25T02:13:28.258Z,1013.35
2018-06-25T02:14:37.703Z,1013.36
2018-06-25T02:15:47.406Z,1013.39
2018-06-25T02:16:57.370Z,1013.42
2018-06-25T02:18:07.339Z,1013.37
2018-06-25T02:19:17.305Z,1013.37
2018-06-25T02:20:27.019Z,1013.35
2018-06-25T02:21:36.992Z,1013.36
2018-06-25T02:22:46.951Z,1013.33
2018-06-25T02:23:56.928Z,1013.33
2018-06-25T02:25:06.887Z,1013.33
2018-06-25T02:26:16.847Z,1013.35
2018-06-25T02:27:26.835Z,1013.36
2018-06-25T02:28:36.794Z,1013.4
2018-06-25T02:29:46.497Z,1013.38
2018-06-25T02:30:56.205Z,1013.4
2018-06-25T02:32:06.187Z,1013.39
2018-06-25T02:33:15.890Z,1013.41
2018-06-25T02:34:25.349Z,1013.44
2018-06-25T02:35:35.063Z,1013.42
2018-06-25T02:36:44.769Z,1013.45
2018-06-25T02:37:54.739Z,1013.46
2018-06-25T02:39:04.459Z,1013.43
2018-06-25T02:40:14.423Z,1013.43
2018-06-25T02:41:24.402Z,1013.44
2018-06-25T02:42:34.101Z,1013.44
2018-06-25T02:43:43.808Z,1013.47
2018-06-25T02:44:53.783Z,1013.47
2018-06-25T02:46:03.504Z,1013.46
2018-06-25T02:47:13.543Z,1013.43
2018-06-25T02:48:23.511Z,1013.44
2018-06-25T02:49:33.492Z,1013.42
2018-06-25T02:50:43.204Z,1013.44
2018-06-25T02:51:53.174Z,1013.41
2018-06-25T02:53:03.157Z,1013.38
2018-06-25T02:54:13.135Z,1013.41
2018-06-25T02:55:22.851Z,1013.44
2018-06-25T02:56:32.560Z,1013.47
2018-06-25T02:57:42.520Z,1013.43
2018-06-25T02:58:52.489Z,1013.45
2018-06-25T03:00:02.461Z,1013.43
2018-06-25T03:01:12.441Z,1013.46
2018-06-25T03:02:21.896Z,1013.49
2018-06-25T03:03:31.626Z,1013.46
2018-06-25T03:04:41.592Z,1013.49
2018-06-25T03:05:51.574Z,1013.47
2018-06-25T03:07:01.553Z,1013.47
2018-06-25T03:08:11.520Z,1013.48
2018-06-25T03:09:21.504Z,1013.5
2018-06-25T03:10:31.227Z,1013.54
2018-06-25T03:11:41.195Z,1013.55
2018-06-25T03:12:51.162Z,1013.59
2018-06-25T03:14:01.120Z,1013.56
2018-06-25T03:15:11.090Z,1013.62
2018-06-25T03:16:20.798Z,1013.6
2018-06-25T03:17:30.765Z,1013.67
2018-06-25T03:18:40.468Z,1013.73
2018-06-25T03:19:50.447Z,1013.7
2018-06-25T03:21:00.417Z,1013.74
2018-06-25T03:22:09.886Z,1013.76
2018-06-25T03:23:19.861Z,1013.74
2018-06-25T03:24:29.831Z,1013.76
2018-06-25T03:25:39.785Z,1013.76
2018-06-25T03:26:49.248Z,1013.75
2018-06-25T03:27:59.211Z,1013.74
2018-06-25T03:29:08.661Z,1013.73
2018-06-25T03:30:18.608Z,1013.75
2018-06-25T03:31:28.567Z,1013.73
2018-06-25T03:32:38.276Z,1013.68
2018-06-25T03:33:48.248Z,1013.68
2018-06-25T03:34:58.207Z,1013.67
2018-06-25T03:36:08.172Z,1013.69
2018-06-25T03:37:17.868Z,1013.7
2018-06-25T03:38:27.818Z,1013.75
2018-06-25T03:39:37.845Z,1013.74
2018-06-25T03:40:47.557Z,1013.78
2018-06-25T03:41:57.269Z,1013.76
2018-06-25T03:43:07.237Z,1013.82
2018-06-25T03:44:17.075Z,1013.81
2018-06-25T03:45:27.036Z,1013.8
2018-06-25T03:46:36.736Z,1013.83
2018-06-25T03:47:46.724Z,1013.84
2018-06-25T03:48:56.693Z,1013.83
2018-06-25T03:50:06.393Z,1013.89
2018-06-25T03:51:16.082Z,1013.89
2018-06-25T03:52:26.039Z,1013.9
2018-06-25T03:53:36.139Z,1013.92
2018-06-25T03:54:46.101Z,1013.88
2018-06-25T03:55:55.796Z,1013.87
2018-06-25T03:57:05.768Z,1013.91
2018-06-25T03:58:15.470Z,1013.93
2018-06-25T03:59:25.436Z,1013.93
2018-06-25T04:00:35.132Z,1013.94
2018-06-25T04:01:45.091Z,1013.93
2018-06-25T04:02:54.799Z,1013.96
2018-06-25T04:04:04.774Z,1013.94
2018-06-25T04:05:14.747Z,1013.96
2018-06-25T04:06:24.707Z,1013.95
2018-06-25T04:07:34.685Z,1013.98
2018-06-25T04:08:44.652Z,1014.02
2018-06-25T04:09:54.603Z,1014.04
2018-06-25T04:11:04.577Z,1014.07
2018-06-25T04:12:14.687Z,1014.1
2018-06-25T04:13:24.661Z,1014.09
2018-06-25T04:14:34.617Z,1014.1
2018-06-25T04:15:44.575Z,1014.11
2018-06-25T04:16:54.525Z,1014.18
2018-06-25T04:18:04.490Z,1014.17
2018-06-25T04:19:13.930Z,1014.13
2018-06-25T04:20:23.630Z,1014.17
2018-06-25T04:21:33.587Z,1014.15
2018-06-25T04:22:43.365Z,1014.2
2018-06-25T04:23:53.078Z,1014.21
2018-06-25T04:25:03.068Z,1014.23
2018-06-25T04:26:13.033Z,1014.2
2018-06-25T04:27:23.001Z,1014.2
2018-06-25T04:28:32.702Z,1014.23
2018-06-25T04:29:42.662Z,1014.2
2018-06-25T04:30:52.638Z,1014.32
2018-06-25T04:32:02.375Z,1014.26
2018-06-25T04:33:12.338Z,1014.28
2018-06-25T04:34:22.310Z,1014.31
2018-06-25T04:35:32.292Z,1014.31
2018-06-25T04:36:42.256Z,1014.33
2018-06-25T04:37:52.223Z,1014.34
2018-06-25T04:39:02.183Z,1014.34
2018-06-25T04:40:11.900Z,1014.4
2018-06-25T04:41:21.726Z,1014.35
2018-06-25T04:42:31.192Z,1014.41
2018-06-25T04:43:40.897Z,1014.38
2018-06-25T04:44:50.864Z,1014.4
2018-06-25T04:46:00.850Z,1014.41
2018-06-25T04:47:10.816Z,1014.46
2018-06-25T04:48:20.531Z,1014.45
2018-06-25T04:49:30.237Z,1014.47
2018-06-25T04:50:40.201Z,1014.49
2018-06-25T04:51:50.193Z,1014.47
2018-06-25T04:52:59.658Z,1014.49
2018-06-25T04:54:09.631Z,1014.5
2018-06-25T04:55:19.358Z,1014.45
2018-06-25T04:56:29.314Z,1014.46
2018-06-25T04:57:39.284Z,1014.49
2018-06-25T04:58:48.994Z,1014.44
2018-06-25T04:59:58.956Z,1014.45
2018-06-25T05:01:08.977Z,1014.49
2018-06-25T05:02:19.318Z,1014.5
2018-06-25T05:03:29.296Z,1014.5
2018-06-25T05:04:39.275Z,1014.48
2018-06-25T05:05:49.267Z,1014.46
2018-06-25T05:06:59.227Z,1014.5
2018-06-25T05:08:08.697Z,1014.51
2018-06-25T05:09:18.647Z,1014.51
2018-06-25T05:10:28.348Z,1014.55
2018-06-25T05:11:38.320Z,1014.6
2018-06-25T05:12:48.022Z,1014.61
2018-06-25T05:13:57.737Z,1014.65
2018-06-25T05:15:07.706Z,1014.64
2018-06-25T05:16:17.673Z,1014.66
2018-06-25T05:17:27.385Z,1014.66
2018-06-25T05:18:37.345Z,1014.67
2018-06-25T05:19:46.796Z,1014.73
2018-06-25T05:20:56.500Z,1014.74
2018-06-25T05:22:06.469Z,1014.72
2018-06-25T05:23:16.182Z,1014.74
2018-06-25T05:24:25.626Z,1014.72
2018-06-25T05:25:35.599Z,1014.7
2018-06-25T05:26:45.581Z,1014.67
2018-06-25T05:27:55.395Z,1014.72
2018-06-25T05:29:05.382Z,1014.72
2018-06-25T05:30:15.554Z,1014.71
2018-06-25T05:31:25.511Z,1014.77
2018-06-25T05:32:35.446Z,1014.77
2018-06-25T05:33:45.445Z,1014.8
2018-06-25T05:34:55.415Z,1014.8
2018-06-25T05:36:05.150Z,1014.81
2018-06-25T05:37:15.132Z,1014.79
2018-06-25T05:38:25.108Z,1014.79
2018-06-25T05:39:34.832Z,1014.83
2018-06-25T05:40:45.094Z,1014.83
2018-06-25T05:41:55.074Z,1014.86
2018-06-25T05:43:05.061Z,1014.86
2018-06-25T05:44:14.779Z,1014.84
2018-06-25T05:45:24.483Z,1014.8
2018-06-25T05:46:34.457Z,1014.81
2018-06-25T05:47:44.436Z,1014.79
2018-06-25T05:48:54.464Z,1014.81
2018-06-25T05:50:04.710Z,1014.72
2018-06-25T05:51:14.683Z,1014.73
2018-06-25T05:52:24.395Z,1014.77
2018-06-25T05:53:34.361Z,1014.77
2018-06-25T05:54:44.365Z,1014.75
2018-06-25T05:55:54.365Z,1014.78
2018-06-25T05:57:04.125Z,1014.77
2018-06-25T05:58:14.125Z,1014.74
2018-06-25T05:59:24.114Z,1014.79
2018-06-25T06:00:33.571Z,1014.77
2018-06-25T06:01:43.549Z,1014.77
2018-06-25T06:02:53.275Z,1014.77
2018-06-25T06:04:03.275Z,1014.77
2018-06-25T06:05:12.711Z,1014.77
2018-06-25T06:06:22.410Z,1014.74
2018-06-25T06:07:31.912Z,1014.75
2018-06-25T06:08:41.894Z,1014.74
2018-06-25T06:09:51.868Z,1014.72
2018-06-25T06:11:01.580Z,1014.74
2018-06-25T06:12:11.561Z,1014.74
2018-06-25T06:13:21.552Z,1014.76
2018-06-25T06:14:31.282Z,1014.76
2018-06-25T06:15:41.260Z,1014.8
2018-06-25T06:16:51.227Z,1014.74
2018-06-25T06:18:01.239Z,1014.71
2018-06-25T06:19:11.229Z,1014.75
2018-06-25T06:20:20.947Z,1014.72
2018-06-25T06:21:30.909Z,1014.79
2018-06-25T06:22:40.910Z,1014.76
2018-06-25T06:23:50.898Z,1014.77
2018-06-25T06:25:00.608Z,1014.79
2018-06-25T06:26:10.576Z,1014.75
2018-06-25T06:27:20.405Z,1014.8
2018-06-25T06:28:30.149Z,1014.83
2018-06-25T06:29:39.868Z,1014.8
2018-06-25T06:30:49.861Z,1014.82
2018-06-25T06:31:59.935Z,1014.81
2018-06-25T06:33:10.387Z,1014.88
2018-06-25T06:34:20.362Z,1014.82
2018-06-25T06:35:30.351Z,1014.82
2018-06-25T06:36:40.344Z,1014.81
2018-06-25T06:37:50.093Z,1014.8
2018-06-25T06:39:00.049Z,1014.81
2018-06-25T06:40:09.770Z,1014.78
2018-06-25T06:41:19.860Z,1014.81
2018-06-25T06:42:29.848Z,1014.86
2018-06-25T06:43:39.816Z,1014.87
2018-06-25T06:44:49.565Z,1014.88
2018-06-25T06:45:59.284Z,1014.86
2018-06-25T06:47:09.275Z,1014.9
2018-06-25T06:48:18.983Z,1014.91
2018-06-25T06:49:28.943Z,1014.92
2018-06-25T06:50:38.913Z,1014.95
2018-06-25T06:51:48.883Z,1014.95
2018-06-25T06:52:58.880Z,1014.94
2018-06-25T06:54:08.651Z,1014.92
2018-06-25T06:55:18.755Z,1014.85
2018-06-25T06:56:28.481Z,1014.82
2018-06-25T06:57:38.468Z,1014.87
2018-06-25T06:58:48.446Z,1014.91
2018-06-25T06:59:58.433Z,1014.97
2018-06-25T07:01:07.907Z,1015
2018-06-25T07:02:17.923Z,1015.01
2018-06-25T07:03:27.633Z,1015.06
2018-06-25T07:04:37.676Z,1015.05
2018-06-25T07:05:48.040Z,1015.01
2018-06-25T07:06:57.759Z,1014.96
2018-06-25T07:08:07.736Z,1014.98
2018-06-25T07:09:17.695Z,1015.11
2018-06-25T07:10:27.669Z,1015.03
2018-06-25T07:11:37.395Z,1015.04
2018-06-25T07:12:47.419Z,1014.98
2018-06-25T07:13:57.397Z,1015.07
2018-06-25T07:15:07.126Z,1015.02
2018-06-25T07:16:16.587Z,1015.03
2018-06-25T07:17:26.570Z,1015.08
2018-06-25T07:18:36.560Z,1015.1
2018-06-25T07:19:46.260Z,1015.14
2018-06-25T07:20:56.025Z,1015.16
2018-06-25T07:22:05.753Z,1015.14
2018-06-25T07:23:15.211Z,1015.18
2018-06-25T07:24:24.919Z,1015.19
2018-06-25T07:25:34.639Z,1015.19
2018-06-25T07:26:44.633Z,1015.13
2018-06-25T07:27:54.605Z,1015.15
2018-06-25T07:29:04.375Z,1015.18
2018-06-25T07:30:14.604Z,1015.12
2018-06-25T07:31:24.592Z,1015.13
2018-06-25T07:32:34.577Z,1015.1
2018-06-25T07:33:44.282Z,1015.11
2018-06-25T07:34:54.003Z,1015.11
2018-06-25T07:36:04.003Z,1015.15
2018-06-25T07:37:13.997Z,1015.1
2018-06-25T07:38:23.717Z,1015.13
2018-06-25T07:39:33.434Z,1015.16
2018-06-25T07:40:43.438Z,1015.17
2018-06-25T07:41:53.412Z,1015.18
2018-06-25T07:43:03.143Z,1015.26
2018-06-25T07:44:12.898Z,1015.33
2018-06-25T07:45:22.629Z,1015.32
2018-06-25T07:46:32.919Z,1015.32
2018-06-25T07:47:42.625Z,1015.23
2018-06-25T07:48:52.609Z,1015.26
2018-06-25T07:50:02.577Z,1015.35
2018-06-25T07:51:12.311Z,1015.25
2018-06-25T07:52:22.332Z,1015.29
2018-06-25T07:53:32.125Z,1015.26
2018-06-25T07:54:42.583Z,1015.21
2018-06-25T07:55:52.555Z,1015.25
2018-06-25T07:57:02.524Z,1015.24
2018-06-25T07:58:12.224Z,1015.33
2018-06-25T07:59:21.950Z,1015.25
2018-06-25T08:00:31.911Z,1015.26
2018-06-25T08:01:41.931Z,1015.31
2018-06-25T08:02:51.910Z,1015.24
2018-06-25T08:04:01.890Z,1015.31
2018-06-25T08:05:11.881Z,1015.31
2018-06-25T08:06:21.634Z,1015.33
2018-06-25T08:07:31.633Z,1015.34
2018-06-25T08:08:41.647Z,1015.32
2018-06-25T08:09:52.031Z,1015.29
2018-06-25T08:11:02.071Z,1015.43
2018-06-25T08:12:12.046Z,1015.33
2018-06-25T08:13:22.027Z,1015.4
2018-06-25T08:14:31.746Z,1015.35
2018-06-25T08:15:41.734Z,1015.36
2018-06-25T08:16:51.713Z,1015.36
2018-06-25T08:18:01.428Z,1015.38
2018-06-25T08:19:11.155Z,1015.37
2018-06-25T08:20:21.145Z,1015.47
2018-06-25T08:21:31.618Z,1015.36
2018-06-25T08:22:41.685Z,1015.39
2018-06-25T08:23:51.699Z,1015.3
2018-06-25T08:25:01.695Z,1015.37
2018-06-25T08:26:11.421Z,1015.37
2018-06-25T08:27:21.388Z,1015.4
2018-06-25T08:28:31.360Z,1015.46
2018-06-25T08:29:41.437Z,1015.52
2018-06-25T08:30:51.942Z,1015.45
2018-06-25T08:32:01.646Z,1015.49
2018-06-25T08:33:11.638Z,1015.51
2018-06-25T08:34:21.854Z,1015.55
2018-06-25T08:35:32.979Z,1015.65
2018-06-25T08:36:42.711Z,1015.69
2018-06-25T08:37:52.694Z,1015.64
2018-06-25T08:39:02.938Z,1015.56
2018-06-25T08:40:12.711Z,1015.6
2018-06-25T08:41:22.757Z,1015.7
2018-06-25T08:42:32.747Z,1015.67
2018-06-25T08:43:42.726Z,1015.61
2018-06-25T08:44:52.722Z,1015.63
2018-06-25T08:46:02.710Z,1015.69
2018-06-25T08:47:12.735Z,1015.71
2018-06-25T08:48:22.709Z,1015.74
2018-06-25T08:49:32.421Z,1015.73
2018-06-25T08:50:42.400Z,1015.83
2018-06-25T08:51:52.457Z,1015.81
2018-06-25T08:53:02.555Z,1015.84
2018-06-25T08:54:12.552Z,1015.75
2018-06-25T08:55:22.525Z,1015.78
2018-06-25T08:56:31.976Z,1015.81
2018-06-25T08:57:42.013Z,1015.87
2018-06-25T08:58:52.000Z,1015.95
2018-06-25T09:00:01.948Z,1015.87
2018-06-25T09:01:11.706Z,1015.84
2018-06-25T09:02:21.419Z,1015.84
2018-06-25T09:03:31.383Z,1015.88
2018-06-25T09:04:41.372Z,1015.92
2018-06-25T09:05:51.360Z,1015.87
2018-06-25T09:07:01.327Z,1015.94
2018-06-25T09:08:11.298Z,1015.83
2018-06-25T09:09:21.038Z,1015.93
2018-06-25T09:10:31.383Z,1015.86
2018-06-25T09:11:41.109Z,1015.86
2018-06-25T09:12:51.069Z,1015.81
2018-06-25T09:14:01.049Z,1015.85
2018-06-25T09:15:11.064Z,1015.89
2018-06-25T09:16:21.553Z,1015.8
2018-06-25T09:17:31.547Z,1015.81
2018-06-25T09:18:41.516Z,1015.81
2018-06-25T09:19:51.508Z,1015.83
2018-06-25T09:21:00.974Z,1015.8
2018-06-25T09:22:10.743Z,1015.84
2018-06-25T09:23:20.731Z,1015.85
2018-06-25T09:24:30.455Z,1015.84
2018-06-25T09:25:40.437Z,1015.87
2018-06-25T09:26:50.430Z,1015.83
2018-06-25T09:28:00.198Z,1015.88
2018-06-25T09:29:10.250Z,1015.87
2018-06-25T09:30:20.241Z,1015.9
2018-06-25T09:31:29.452Z,1015.91
2018-06-25T09:32:39.431Z,1015.87
2018-06-25T09:33:49.427Z,1015.87
2018-06-25T09:34:59.399Z,1015.9
2018-06-25T09:36:09.174Z,1015.93
2018-06-25T09:37:18.639Z,1015.93
2018-06-25T09:38:28.621Z,1015.91
2018-06-25T09:39:38.590Z,1015.94
2018-06-25T09:40:48.392Z,1015.95
2018-06-25T09:41:58.763Z,1015.89
2018-06-25T09:43:08.485Z,1015.97
2018-06-25T09:44:18.196Z,1015.95
2018-06-25T09:45:28.180Z,1015.98
2018-06-25T09:46:38.179Z,1016.03
2018-06-25T09:47:48.148Z,1016.09
2018-06-25T09:48:58.115Z,1016.05
2018-06-25T09:50:08.107Z,1015.98
2018-06-25T09:51:17.819Z,1016.04
2018-06-25T09:52:27.832Z,1016.02
2018-06-25T09:53:37.541Z,1016
2018-06-25T09:54:47.290Z,1016.02
2018-06-25T09:55:57.682Z,1016.07
2018-06-25T09:57:07.684Z,1016
2018-06-25T09:58:17.422Z,1015.97
2018-06-25T09:59:27.146Z,1015.91
2018-06-25T10:00:36.870Z,1015.94
2018-06-25T10:01:47.083Z,1015.95
2018-06-25T10:02:57.054Z,1016.01
2018-06-25T10:04:07.037Z,1016.01
2018-06-25T10:05:17.020Z,1015.91
2018-06-25T10:06:27.015Z,1015.94
2018-06-25T10:07:36.993Z,1015.94
2018-06-25T10:08:46.716Z,1015.93
2018-06-25T10:09:56.693Z,1015.96
2018-06-25T10:11:06.416Z,1016.03
2018-06-25T10:12:16.149Z,1016.11
2018-06-25T10:13:26.131Z,1016.13
2018-06-25T10:14:35.860Z,1016.04
2018-06-25T10:15:45.864Z,1016.02
2018-06-25T10:16:55.918Z,1016.29
2018-06-25T10:18:05.948Z,1016.12
2018-06-25T10:19:15.917Z,1016.19
2018-06-25T10:20:25.901Z,1016.12
2018-06-25T10:21:35.614Z,1016.14
2018-06-25T10:22:45.337Z,1016.13
2018-06-25T10:23:55.324Z,1016.03
2018-06-25T10:25:05.339Z,1016.17
2018-06-25T10:26:15.313Z,1016.14
2018-06-25T10:27:25.307Z,1016.15
2018-06-25T10:28:35.290Z,1016.22
2018-06-25T10:29:45.297Z,1016.12
2018-06-25T10:30:54.758Z,1016.19
2018-06-25T10:32:04.757Z,1016.15
2018-06-25T10:33:14.735Z,1016.11
2018-06-25T10:34:24.719Z,1016.03
2018-06-25T10:35:34.442Z,1016.06
2018-06-25T10:36:44.186Z,1016.11
2018-06-25T10:37:54.184Z,1016.08
2018-06-25T10:39:04.177Z,1016.12
2018-06-25T10:40:14.174Z,1016.06
2018-06-25T10:41:24.145Z,1016.07
2018-06-25T10:42:34.046Z,1016.19
2018-06-25T10:43:44.690Z,1016.1
2018-06-25T10:44:54.684Z,1016.08
2018-06-25T10:46:04.708Z,1016.06
2018-06-25T10:47:14.736Z,1016.06
2018-06-25T10:48:24.739Z,1015.92
2018-06-25T10:49:34.726Z,1015.97
2018-06-25T10:50:44.742Z,1015.92
2018-06-25T10:51:54.714Z,1016.03
2018-06-25T10:53:04.736Z,1015.96
2018-06-25T10:54:14.259Z,1016
2018-06-25T10:55:23.995Z,1016.03
2018-06-25T10:56:34.022Z,1015.99
2018-06-25T10:57:44.009Z,1016
2018-06-25T10:58:53.719Z,1015.96
2018-06-25T11:00:03.941Z,1015.99
2018-06-25T11:01:14.820Z,1016
2018-06-25T11:02:24.486Z,1015.92
2018-06-25T11:03:34.465Z,1015.84
2018-06-25T11:04:44.462Z,1015.86
2018-06-25T11:05:54.024Z,1015.85
2018-06-25T11:07:04.227Z,1015.84
2018-06-25T11:08:14.299Z,1015.9
2018-06-25T11:09:24.325Z,1015.96
2018-06-25T11:10:34.311Z,1015.89
2018-06-25T11:11:44.308Z,1015.84
2018-06-25T11:12:54.323Z,1015.81
2018-06-25T11:14:04.625Z,1015.83
2018-06-25T11:15:14.598Z,1015.75
2018-06-25T11:16:24.365Z,1015.79
2018-06-25T11:17:34.338Z,1015.85
2018-06-25T11:18:44.080Z,1015.84
2018-06-25T11:19:53.551Z,1015.76
2018-06-25T11:21:03.541Z,1015.78
2018-06-25T11:22:13.530Z,1015.85
2018-06-25T11:23:23.529Z,1015.85
2018-06-25T11:24:33.236Z,1015.74
2018-06-25T11:25:43.235Z,1015.69
2018-06-25T11:26:53.389Z,1015.67
2018-06-25T11:28:03.871Z,1015.66
2018-06-25T11:29:13.871Z,1015.75
2018-06-25T11:30:23.637Z,1015.85
2018-06-25T11:31:33.636Z,1015.72
2018-06-25T11:32:43.640Z,1015.65
2018-06-25T11:33:53.652Z,1015.77
2018-06-25T11:35:03.699Z,1015.73
2018-06-25T11:36:13.173Z,1015.82
2018-06-25T11:37:23.220Z,1015.68
2018-06-25T11:38:33.218Z,1015.72
2018-06-25T11:39:43.257Z,1015.68
2018-06-25T11:40:53.304Z,1015.6
2018-06-25T11:42:03.029Z,1015.57
2018-06-25T11:43:13.045Z,1015.64
2018-06-25T11:44:22.517Z,1015.68
2018-06-25T11:45:32.507Z,1015.61
2018-06-25T11:46:42.238Z,1015.53
2018-06-25T11:47:51.728Z,1015.56
2018-06-25T11:49:01.456Z,1015.52
2018-06-25T11:50:11.472Z,1015.58
2018-06-25T11:51:21.219Z,1015.58
2018-06-25T11:52:31.206Z,1015.54
2018-06-25T11:53:40.943Z,1015.61
2018-06-25T11:54:50.682Z,1015.62
2018-06-25T11:56:00.404Z,1015.56
2018-06-25T11:57:10.394Z,1015.6
2018-06-25T11:58:19.860Z,1015.6
2018-06-25T11:59:29.882Z,1015.57
2018-06-25T12:00:39.613Z,1015.54
2018-06-25T12:01:49.641Z,1015.46
2018-06-25T12:02:59.726Z,1015.55
2018-06-25T12:04:10.836Z,1015.48
2018-06-25T12:05:20.321Z,1015.51
2018-06-25T12:06:29.796Z,1015.43
2018-06-25T12:07:39.795Z,1015.43
2018-06-25T12:08:49.766Z,1015.56
2018-06-25T12:09:59.773Z,1015.44
2018-06-25T12:11:09.782Z,1015.4
2018-06-25T12:12:19.728Z,1015.37
2018-06-25T12:13:30.166Z,1015.25
2018-06-25T12:14:39.619Z,1015.41
2018-06-25T12:15:49.369Z,1015.42
2018-06-25T12:16:59.108Z,1015.3
2018-06-25T12:18:09.107Z,1015.38
2018-06-25T12:19:19.084Z,1015.35
2018-06-25T12:20:28.839Z,1015.38
2018-06-25T12:21:38.871Z,1015.39
2018-06-25T12:22:48.884Z,1015.24
2018-06-25T12:23:59.026Z,1015.33
2018-06-25T12:25:09.003Z,1015.34
2018-06-25T12:26:18.728Z,1015.3
2018-06-25T12:27:28.726Z,1015.26
2018-06-25T12:28:38.842Z,1015.33
2018-06-25T12:29:48.583Z,1015.26
2018-06-25T12:30:58.316Z,1015.24
2018-06-25T12:32:08.312Z,1015.26
2018-06-25T12:33:17.864Z,1015.16
2018-06-25T12:34:27.860Z,1015.22
2018-06-25T12:35:37.854Z,1015.2
2018-06-25T12:36:47.635Z,1015.19
2018-06-25T12:37:57.380Z,1015.24
2018-06-25T12:39:07.407Z,1015.24
2018-06-25T12:40:17.473Z,1015.21
2018-06-25T12:41:27.531Z,1015.19
2018-06-25T12:42:37.903Z,1015.25
2018-06-25T12:43:47.629Z,1015.2
2018-06-25T12:44:57.617Z,1015.22
2018-06-25T12:46:07.360Z,1015.25
2018-06-25T12:47:17.099Z,1015.19
2018-06-25T12:48:26.907Z,1015.15
2018-06-25T12:49:36.627Z,1015.11
2018-06-25T12:50:46.620Z,1015.12
2018-06-25T12:51:56.339Z,1015.18
2018-06-25T12:53:06.338Z,1015.19
2018-06-25T12:54:15.799Z,1015.24
2018-06-25T12:55:25.794Z,1015.17
2018-06-25T12:56:35.788Z,1015.17
2018-06-25T12:57:45.774Z,1015.14
2018-06-25T12:58:55.778Z,1015.14
2018-06-25T13:00:05.765Z,1015.12
2018-06-25T13:01:15.752Z,1015.16
2018-06-25T13:02:25.892Z,1015.12
2018-06-25T13:03:35.656Z,1015.07
2018-06-25T13:04:45.620Z,1015.1
2018-06-25T13:05:55.601Z,1015.09
2018-06-25T13:07:05.627Z,1015.19
2018-06-25T13:08:15.613Z,1015.11
2018-06-25T13:09:25.359Z,1015.15
2018-06-25T13:10:35.378Z,1015.1
2018-06-25T13:11:45.713Z,1015.1
2018-06-25T13:12:55.449Z,1015.03
2018-06-25T13:14:05.488Z,1015.14
2018-06-25T13:15:15.494Z,1015.05
2018-06-25T13:16:25.501Z,1015.23
2018-06-25T13:17:35.519Z,1015.13
2018-06-25T13:18:45.236Z,1015.12
2018-06-25T13:19:55.265Z,1015.08
2018-06-25T13:21:05.264Z,1015.14
2018-06-25T13:22:14.980Z,1015.05
2018-06-25T13:23:24.743Z,1015.23
2018-06-25T13:24:34.499Z,1015.22
2018-06-25T13:25:44.713Z,1015.16
2018-06-25T13:26:55.281Z,1015.15
2018-06-25T13:28:05.290Z,1015.13
2018-06-25T13:29:15.019Z,1015.11
2018-06-25T13:30:25.022Z,1015.09
2018-06-25T13:31:35.015Z,1015.16
2018-06-25T13:32:44.996Z,1015.1
2018-06-25T13:33:54.723Z,1015.06
2018-06-25T13:35:04.730Z,1015.11
2018-06-25T13:36:14.465Z,1015.23
2018-06-25T13:37:24.185Z,1015.1
2018-06-25T13:38:33.934Z,1015.19
2018-06-25T13:39:43.917Z,1015.11
2018-06-25T13:40:53.887Z,1015.13
2018-06-25T13:42:03.643Z,1015.09
2018-06-25T13:43:13.360Z,1015.21
2018-06-25T13:44:23.355Z,1015.2
2018-06-25T13:45:33.708Z,1015.21
2018-06-25T13:46:44.061Z,1015.19
2018-06-25T13:47:53.792Z,1015.22
2018-06-25T13:49:03.512Z,1015.15
2018-06-25T13:50:13.249Z,1015.2
2018-06-25T13:51:23.227Z,1015.15
2018-06-25T13:52:33.214Z,1015.18
2018-06-25T13:53:43.185Z,1015.15
2018-06-25T13:54:52.918Z,1015.11
2018-06-25T13:56:02.924Z,1015.19
2018-06-25T13:57:12.907Z,1015.19
2018-06-25T13:58:22.921Z,1015.21
2018-06-25T13:59:32.894Z,1015.24
2018-06-25T14:00:42.900Z,1015.26
2018-06-25T14:01:53.103Z,1015.2
2018-06-25T14:03:03.106Z,1015.21
2018-06-25T14:04:12.832Z,1015.22
2018-06-25T14:05:22.805Z,1015.23
2018-06-25T14:06:32.786Z,1015.24
2018-06-25T14:07:42.810Z,1015.24
2018-06-25T14:08:52.523Z,1015.16